Bunnell, Florida
Current Conditions -  °F | °C
As of 3:53 AM on Friday 19 Dec 2014 (Local Time) from KDAB Reporting Station
Few Clouds Few Clouds  
Wind Chill: 52°   Ceiling: Unl
Heat Index: 52°   Visibility: 10mi
Dew Point: 48°   Wind: 3mph
Humidity: 86%   Direction: 310°NW
Pressure: 30.11"   Gusts: NA
Location:  29.47°N, 81.26°W
Report Text: KDAB 190853Z 31003KT 10SM FEW250 11/09 A3011 RMK AO2 SLP194 T01110089 58006
Loading
Personal Weather Stations






























Interactive Weather Map New forecast layout! Learn more

10-Day Weather Forecast

Advertisements
Track Severe Weather on mobile